createdAt,value
2022-12-14T00:02:14.607Z,20.70
2022-12-14T00:07:18.126Z,20.80
2022-12-14T00:12:21.675Z,20.90
2022-12-14T00:17:30.679Z,21.00
2022-12-14T00:22:34.396Z,21.00
2022-12-14T00:27:42.945Z,21.10
2022-12-14T00:32:51.525Z,21.10
2022-12-14T00:37:55.415Z,21.10
2022-12-14T00:43:02.400Z,21.20
2022-12-14T00:48:08.028Z,21.20
2022-12-14T00:53:11.734Z,21.20
2022-12-14T00:58:19.074Z,21.20
2022-12-14T01:03:24.624Z,21.20
2022-12-14T01:08:35.508Z,21.20
2022-12-14T01:13:40.295Z,21.10
2022-12-14T01:18:45.671Z,21.10
2022-12-14T01:23:55.358Z,21.10
2022-12-14T01:29:00.603Z,21.10
2022-12-14T01:34:08.250Z,21.10
2022-12-14T01:39:16.304Z,21.10
2022-12-14T01:44:57.290Z,21.10
2022-12-14T01:50:11.423Z,21.10
2022-12-14T01:55:21.450Z,21.10
2022-12-14T02:00:25.469Z,21.10
2022-12-14T02:05:33.975Z,21.10
2022-12-14T02:10:37.978Z,21.10
2022-12-14T02:15:42.232Z,21.10
2022-12-14T02:21:10.947Z,21.10
2022-12-14T02:26:57.423Z,21.10
2022-12-14T02:32:24.870Z,21.10
2022-12-14T02:37:40.425Z,21.00
2022-12-14T02:42:58.740Z,21.00
2022-12-14T02:48:09.912Z,21.00
2022-12-14T02:53:25.955Z,21.00
2022-12-14T02:58:36.425Z,21.10
2022-12-14T03:03:42.525Z,21.20
2022-12-14T03:08:49.006Z,21.20
2022-12-14T03:13:59.609Z,21.20
2022-12-14T03:19:12.121Z,21.20
2022-12-14T03:24:25.159Z,21.10
2022-12-14T03:29:31.798Z,21.10
2022-12-14T03:34:49.219Z,21.10
2022-12-14T03:39:53.189Z,21.10
2022-12-14T03:45:05.601Z,21.10
2022-12-14T03:50:17.132Z,21.00
2022-12-14T03:55:28.211Z,21.10
2022-12-14T04:00:40.947Z,21.20
2022-12-14T04:05:53.736Z,21.30
2022-12-14T04:11:17.337Z,21.40
2022-12-14T04:16:45.710Z,21.40
2022-12-14T04:21:56.622Z,21.40
2022-12-14T04:27:08.015Z,21.40
2022-12-14T04:32:18.887Z,21.40
2022-12-14T04:37:28.643Z,21.40
2022-12-14T04:42:39.748Z,21.30
2022-12-14T04:47:55.694Z,21.30
2022-12-14T04:53:09.456Z,21.30
2022-12-14T04:58:20.861Z,21.20
2022-12-14T05:03:31.424Z,21.20
2022-12-14T05:09:08.393Z,21.20
2022-12-14T05:14:20.859Z,21.10
2022-12-14T05:19:26.782Z,21.10
2022-12-14T05:24:31.963Z,21.00
2022-12-14T05:29:35.929Z,21.00
2022-12-14T05:34:39.521Z,21.00
2022-12-14T05:39:44.646Z,20.90
2022-12-14T05:44:49.047Z,20.90
2022-12-14T05:49:52.948Z,20.80
2022-12-14T05:55:02.406Z,20.80
2022-12-14T06:00:10.720Z,20.70
2022-12-14T06:05:14.658Z,20.70
2022-12-14T06:10:19.803Z,20.70
2022-12-14T06:15:23.583Z,20.60
2022-12-14T06:20:27.422Z,20.60
2022-12-14T06:25:32.708Z,20.60
2022-12-14T06:30:36.504Z,20.60
2022-12-14T06:35:45.190Z,20.50
2022-12-14T06:40:50.435Z,20.50
2022-12-14T06:45:54.657Z,20.50
2022-12-14T06:51:02.055Z,20.50
2022-12-14T06:56:14.752Z,20.50
2022-12-14T07:01:21.596Z,20.60
2022-12-14T07:06:27.526Z,20.60
2022-12-14T07:11:33.305Z,20.60
2022-12-14T07:16:37.924Z,20.50
2022-12-14T07:21:41.672Z,20.60
2022-12-14T07:26:46.723Z,20.60
2022-12-14T07:31:50.515Z,20.60
2022-12-14T07:36:54.973Z,20.60
2022-12-14T07:42:00.161Z,20.60
2022-12-14T07:47:05.320Z,20.60
2022-12-14T07:52:08.871Z,20.60
2022-12-14T07:57:14.443Z,20.60
2022-12-14T08:02:18.285Z,20.70
2022-12-14T08:07:21.957Z,20.60
2022-12-14T08:12:27.001Z,20.60
2022-12-14T08:17:30.718Z,20.60
2022-12-14T08:22:34.768Z,20.60
2022-12-14T08:27:39.825Z,20.60
2022-12-14T08:32:43.673Z,20.60
2022-12-14T08:37:47.851Z,20.60
2022-12-14T08:42:53.069Z,20.30
2022-12-14T08:47:59.053Z,20.10
2022-12-14T08:53:02.680Z,19.90
2022-12-14T08:58:07.562Z,19.80
2022-12-14T09:03:11.832Z,19.70
2022-12-14T09:08:15.553Z,19.60
2022-12-14T09:13:20.593Z,19.60
2022-12-14T09:18:24.288Z,19.70
2022-12-14T09:23:31.129Z,19.70
2022-12-14T09:28:40.746Z,19.70
2022-12-14T09:33:44.611Z,19.70
2022-12-14T09:38:51.852Z,19.70
2022-12-14T09:44:04.244Z,19.70
2022-12-14T09:49:20.688Z,19.70
2022-12-14T09:54:29.639Z,19.70
2022-12-14T09:59:35.515Z,19.60
2022-12-14T10:04:56.894Z,19.60
2022-12-14T10:10:07.303Z,19.60
2022-12-14T10:15:28.048Z,19.60
2022-12-14T10:20:41.094Z,19.50
2022-12-14T10:25:46.719Z,19.50
2022-12-14T10:30:54.966Z,19.50
2022-12-14T10:36:09.308Z,19.50
2022-12-14T10:41:23.415Z,19.50
2022-12-14T10:46:40.957Z,19.50
2022-12-14T10:51:51.010Z,19.50
2022-12-14T10:56:54.844Z,19.50
2022-12-14T11:02:07.236Z,19.40
2022-12-14T11:07:15.837Z,19.40
2022-12-14T11:12:24.644Z,19.40
2022-12-14T11:17:38.137Z,19.40
2022-12-14T11:22:47.198Z,19.30
2022-12-14T11:27:50.830Z,19.30
2022-12-14T11:32:56.546Z,19.30
2022-12-14T11:38:02.185Z,19.30
2022-12-14T11:43:06.928Z,19.30
2022-12-14T11:48:24.219Z,19.30
2022-12-14T11:53:27.756Z,19.30
2022-12-14T11:58:35.727Z,19.30
2022-12-14T12:03:44.049Z,19.30
2022-12-14T12:08:47.980Z,19.30
2022-12-14T12:13:58.881Z,19.30
2022-12-14T12:19:12.424Z,19.30
2022-12-14T12:24:23.578Z,19.20
2022-12-14T12:29:31.835Z,19.20
2022-12-14T12:34:47.382Z,19.20
2022-12-14T12:40:02.176Z,19.20
2022-12-14T12:45:17.030Z,19.20
2022-12-14T12:50:28.166Z,19.20
2022-12-14T12:55:37.424Z,19.10
2022-12-14T13:00:42.922Z,19.20
2022-12-14T13:05:49.675Z,19.10
2022-12-14T13:16:27.176Z,19.10
2022-12-14T13:21:37.533Z,19.10
2022-12-14T13:27:29.276Z,19.10
2022-12-14T13:32:57.145Z,19.10
2022-12-14T13:38:34.245Z,19.10
2022-12-14T13:44:05.143Z,19.10
2022-12-14T13:49:20.658Z,19.10
2022-12-14T13:54:33.970Z,19.10
2022-12-14T13:59:41.975Z,19.10
2022-12-14T14:04:45.791Z,19.10
2022-12-14T14:10:04.294Z,19.10
2022-12-14T14:21:42.726Z,19.00
2022-12-14T14:27:17.945Z,19.00
2022-12-14T14:32:41.770Z,19.00
2022-12-14T14:37:59.436Z,19.00
2022-12-14T14:43:09.054Z,19.00
2022-12-14T14:48:26.320Z,19.00
2022-12-14T14:53:33.481Z,19.00
2022-12-14T14:58:41.075Z,19.00
2022-12-14T15:03:58.884Z,19.00
2022-12-14T15:09:08.638Z,18.90
2022-12-14T15:14:35.641Z,19.00
2022-12-14T15:19:39.407Z,18.90
2022-12-14T15:24:45.693Z,18.90
2022-12-14T15:29:51.304Z,18.90
2022-12-14T15:34:58.279Z,18.90
2022-12-14T15:40:07.100Z,18.90
2022-12-14T15:45:18.975Z,18.90
2022-12-14T15:50:27.916Z,18.90
2022-12-14T15:55:39.468Z,18.90
2022-12-14T16:00:48.460Z,18.90
2022-12-14T16:05:53.660Z,18.80
2022-12-14T16:11:01.882Z,18.80
2022-12-14T16:16:13.781Z,18.70
2022-12-14T16:21:31.619Z,18.60
2022-12-14T16:26:38.700Z,18.50
2022-12-14T16:31:44.263Z,18.40
2022-12-14T16:37:23.193Z,18.50
2022-12-14T16:42:21.799Z,18.40
2022-12-14T16:48:08.360Z,18.40
2022-12-14T16:53:18.934Z,18.40
2022-12-14T16:58:22.617Z,18.40
2022-12-14T17:03:30.599Z,18.50
2022-12-14T17:08:36.214Z,18.60
2022-12-14T17:13:40.022Z,18.50
2022-12-14T17:18:45.029Z,18.50
2022-12-14T17:23:48.904Z,18.50
2022-12-14T17:28:53.657Z,18.50
2022-12-14T17:33:58.744Z,18.60
2022-12-14T17:39:02.515Z,18.60
2022-12-14T17:44:06.912Z,18.50
2022-12-14T17:49:14.058Z,18.50
2022-12-14T17:54:23.482Z,18.50
2022-12-14T17:59:29.626Z,18.50
2022-12-14T18:04:34.761Z,18.50
2022-12-14T18:09:38.371Z,18.50
2022-12-14T18:14:42.239Z,18.60
2022-12-14T18:19:49.616Z,19.00
2022-12-14T18:24:53.510Z,19.50
2022-12-14T18:29:57.453Z,20.00
2022-12-14T18:35:02.637Z,20.30
2022-12-14T18:40:08.625Z,20.60
2022-12-14T18:45:19.861Z,21.00
2022-12-14T18:50:25.978Z,21.30
2022-12-14T18:55:33.439Z,21.40
2022-12-14T19:00:39.614Z,21.30
2022-12-14T19:05:45.880Z,21.30
2022-12-14T19:10:50.525Z,21.20
2022-12-14T19:15:54.994Z,21.20
2022-12-14T19:21:00.164Z,21.20
2022-12-14T19:26:04.893Z,21.10
2022-12-14T19:31:12.441Z,21.00
2022-12-14T19:36:17.463Z,20.90
2022-12-14T19:41:21.589Z,20.90
2022-12-14T19:46:25.677Z,20.80
2022-12-14T19:51:31.150Z,20.70
2022-12-14T19:56:34.796Z,20.70
2022-12-14T20:01:42.023Z,20.80
2022-12-14T20:06:51.689Z,21.10
2022-12-14T20:11:55.236Z,21.60
2022-12-14T20:16:59.071Z,21.90
2022-12-14T20:22:04.512Z,21.90
2022-12-14T20:27:08.223Z,21.90
2022-12-14T20:32:13.008Z,21.90
2022-12-14T20:37:18.095Z,21.80
2022-12-14T20:42:21.699Z,21.70
2022-12-14T20:47:25.548Z,21.70
2022-12-14T20:52:30.677Z,21.60
2022-12-14T20:57:34.322Z,21.50
2022-12-14T21:02:38.206Z,21.40
2022-12-14T21:07:43.381Z,21.30
2022-12-14T21:12:49.745Z,21.30
2022-12-14T21:17:53.541Z,21.20
2022-12-14T21:22:58.613Z,21.10
2022-12-14T21:28:02.252Z,21.00
2022-12-14T21:33:06.515Z,21.00
2022-12-14T21:38:11.578Z,20.90
2022-12-14T21:43:15.178Z,21.00
2022-12-14T21:48:18.867Z,21.30
2022-12-14T21:53:23.976Z,21.60
2022-12-14T21:58:27.622Z,21.90
2022-12-14T22:03:32.853Z,22.00
2022-12-14T22:08:38.464Z,22.00
2022-12-14T22:13:42.397Z,22.00
2022-12-14T22:18:46.766Z,21.90
2022-12-14T22:23:52.192Z,21.90
2022-12-14T22:28:55.932Z,21.80
2022-12-14T22:33:59.787Z,21.90
2022-12-14T22:39:05.027Z,21.70
2022-12-14T22:44:09.463Z,21.70
2022-12-14T22:49:17.902Z,21.60
2022-12-14T22:54:27.113Z,21.50
2022-12-14T22:59:37.376Z,21.50
2022-12-14T23:04:41.161Z,21.40
2022-12-14T23:10:04.300Z,21.30
2022-12-14T23:15:26.858Z,21.30
2022-12-14T23:20:47.992Z,21.20
2022-12-14T23:26:10.831Z,21.20
2022-12-14T23:31:31.809Z,21.20
2022-12-14T23:36:52.880Z,21.20
2022-12-14T23:42:15.465Z,21.30
2022-12-14T23:47:36.530Z,21.40
2022-12-14T23:52:57.602Z,21.40
2022-12-14T23:58:19.859Z,21.40
